createdAt,value
2018-08-30T00:01:59.566Z,5.50
2018-08-30T00:04:27.860Z,5.30
2018-08-30T00:06:56.010Z,5.50
2018-08-30T00:09:24.583Z,5.45
2018-08-30T00:11:52.722Z,5.27
2018-08-30T00:14:21.441Z,5.57
2018-08-30T00:16:49.787Z,5.83
2018-08-30T00:19:18.555Z,5.73
2018-08-30T00:21:46.670Z,5.33
2018-08-30T00:24:14.969Z,6.00
2018-08-30T00:26:43.075Z,6.07
2018-08-30T00:29:11.172Z,5.73
2018-08-30T00:31:39.366Z,6.57
2018-08-30T00:34:07.482Z,7.37
2018-08-30T00:36:35.653Z,7.53
2018-08-30T00:39:03.922Z,8.40
2018-08-30T00:41:32.030Z,9.37
2018-08-30T00:44:00.323Z,10.23
2018-08-30T00:46:28.459Z,11.10
2018-08-30T00:48:56.594Z,11.50
2018-08-30T00:51:25.122Z,13.17
2018-08-30T00:53:53.282Z,14.00
2018-08-30T00:56:21.466Z,14.77
2018-08-30T00:58:49.632Z,15.68
2018-08-30T01:01:17.798Z,15.30
2018-08-30T01:03:45.902Z,15.83
2018-08-30T01:06:14.090Z,15.07
2018-08-30T01:08:42.370Z,15.07
2018-08-30T01:11:10.590Z,13.50
2018-08-30T01:13:38.671Z,13.40
2018-08-30T01:16:06.790Z,13.00
2018-08-30T01:18:35.039Z,12.03
2018-08-30T01:21:03.390Z,12.28
2018-08-30T01:23:31.513Z,11.43
2018-08-30T01:25:59.652Z,12.00
2018-08-30T01:28:27.841Z,12.07
2018-08-30T01:30:55.949Z,12.30
2018-08-30T01:33:24.162Z,13.97
2018-08-30T01:35:53.019Z,13.53
2018-08-30T01:38:21.534Z,14.80
2018-08-30T01:40:50.124Z,12.73
2018-08-30T01:43:18.271Z,13.27
2018-08-30T01:45:46.364Z,14.37
2018-08-30T01:48:14.729Z,13.20
2018-08-30T01:50:42.878Z,14.70
2018-08-30T01:53:11.079Z,14.53
2018-08-30T01:55:39.215Z,15.50
2018-08-30T01:58:07.417Z,16.27
2018-08-30T02:00:35.723Z,17.25
2018-08-30T02:03:03.959Z,16.42
2018-08-30T02:05:32.108Z,18.63
2018-08-30T02:08:00.830Z,20.07
2018-08-30T02:10:29.111Z,18.13
2018-08-30T02:12:58.090Z,19.07
2018-08-30T02:15:26.415Z,19.77
2018-08-30T02:17:55.152Z,19.53
2018-08-30T02:20:23.591Z,19.00
2018-08-30T02:22:51.691Z,21.10
2018-08-30T02:25:20.023Z,19.57
2018-08-30T02:27:48.163Z,19.03
2018-08-30T02:30:16.277Z,20.73
2018-08-30T02:32:44.399Z,20.30
2018-08-30T02:35:12.539Z,21.10
2018-08-30T02:37:40.682Z,20.27
2018-08-30T02:40:09.138Z,21.40
2018-08-30T02:42:37.266Z,20.70
2018-08-30T02:45:05.717Z,19.70
2018-08-30T02:47:34.209Z,19.70
2018-08-30T02:50:02.547Z,19.80
2018-08-30T02:52:30.744Z,18.48
2018-08-30T02:54:59.195Z,17.90
2018-08-30T02:57:27.312Z,16.63
2018-08-30T02:59:56.908Z,15.53
2018-08-30T03:02:25.527Z,16.07
2018-08-30T03:04:53.783Z,14.80
2018-08-30T03:07:21.918Z,14.70
2018-08-30T03:09:50.078Z,15.67
2018-08-30T03:12:18.218Z,16.10
2018-08-30T03:14:56.438Z,12.87
2018-08-30T03:17:24.595Z,13.70
2018-08-30T03:19:54.288Z,13.93
2018-08-30T03:27:20.680Z,10.13
2018-08-30T03:29:49.077Z,11.10
2018-08-30T03:32:17.210Z,9.83
2018-08-30T03:34:45.542Z,9.00
2018-08-30T03:37:15.229Z,10.27
2018-08-30T03:39:43.307Z,8.80
2018-08-30T03:42:11.439Z,11.63
2018-08-30T03:44:39.648Z,10.27
2018-08-30T03:47:08.702Z,10.80
2018-08-30T03:49:37.225Z,10.82
2018-08-30T03:52:17.885Z,10.10
2018-08-30T03:54:52.447Z,10.28
2018-08-30T03:57:20.629Z,10.10
2018-08-30T03:59:48.768Z,9.00
2018-08-30T04:02:16.956Z,9.10
2018-08-30T04:04:45.119Z,8.63
2018-08-30T04:07:13.233Z,8.77
2018-08-30T04:09:41.540Z,7.90
2018-08-30T04:12:09.658Z,5.65
2018-08-30T04:14:38.550Z,6.20
2018-08-30T04:17:07.391Z,4.65
2018-08-30T04:19:35.562Z,4.60
2018-08-30T04:22:03.768Z,3.85
2018-08-30T04:24:31.943Z,3.40
2018-08-30T04:27:01.078Z,5.17
2018-08-30T04:29:29.219Z,4.10
2018-08-30T04:31:57.329Z,4.57
2018-08-30T04:34:25.619Z,5.30
2018-08-30T04:36:53.687Z,5.10
2018-08-30T04:39:21.771Z,6.03
2018-08-30T04:41:49.860Z,5.43
2018-08-30T04:44:18.173Z,6.53
2018-08-30T04:46:46.532Z,6.27
2018-08-30T04:49:14.778Z,6.80
2018-08-30T04:51:42.935Z,7.70
2018-08-30T04:54:11.095Z,7.83
2018-08-30T04:56:39.247Z,7.95
2018-08-30T04:59:07.393Z,7.37
2018-08-30T05:01:35.562Z,6.80
2018-08-30T05:04:03.672Z,8.30
2018-08-30T05:06:31.819Z,7.47
2018-08-30T05:09:00.046Z,7.43
2018-08-30T05:11:28.123Z,7.50
2018-08-30T05:13:56.279Z,8.30
2018-08-30T05:16:25.328Z,10.70
2018-08-30T05:18:54.179Z,7.78
2018-08-30T05:21:22.625Z,8.60
2018-08-30T05:23:50.671Z,9.37
2018-08-30T05:26:18.758Z,8.63
2018-08-30T05:28:46.853Z,9.93
2018-08-30T05:31:15.008Z,9.40
2018-08-30T05:33:43.103Z,9.23
2018-08-30T05:36:11.164Z,8.40
2018-08-30T05:38:40.381Z,8.70
2018-08-30T05:41:08.462Z,7.80
2018-08-30T05:43:36.717Z,7.40
2018-08-30T05:46:04.813Z,7.47
2018-08-30T05:48:32.919Z,7.07
2018-08-30T05:51:01.343Z,7.22
2018-08-30T05:53:29.581Z,8.63
2018-08-30T05:55:57.796Z,8.77
2018-08-30T05:58:26.000Z,7.45
2018-08-30T06:00:54.207Z,8.90
2018-08-30T06:03:22.295Z,8.93
2018-08-30T06:05:50.489Z,9.47
2018-08-30T06:08:18.632Z,8.60
2018-08-30T06:10:46.728Z,8.97
2018-08-30T06:13:14.808Z,9.70
2018-08-30T06:15:43.003Z,9.97
2018-08-30T06:18:11.106Z,9.45
2018-08-30T06:20:39.243Z,9.43
2018-08-30T06:23:07.507Z,10.03
2018-08-30T06:25:36.205Z,10.38
2018-08-30T06:28:04.466Z,9.65
2018-08-30T06:30:33.264Z,9.93
2018-08-30T06:33:01.614Z,10.80
2018-08-30T06:35:29.919Z,10.53
2018-08-30T06:37:58.056Z,11.50
2018-08-30T06:40:26.615Z,11.35
2018-08-30T06:42:54.695Z,11.30
2018-08-30T06:45:22.833Z,12.93
2018-08-30T06:47:51.323Z,11.47
2018-08-30T06:50:19.427Z,11.10
2018-08-30T06:52:47.765Z,11.87
2018-08-30T06:55:15.845Z,12.10
2018-08-30T06:57:44.092Z,13.63
2018-08-30T07:00:12.321Z,12.20
2018-08-30T07:02:40.463Z,12.77
2018-08-30T07:05:08.558Z,13.67
2018-08-30T07:07:36.707Z,12.33
2018-08-30T07:10:05.179Z,13.05
2018-08-30T07:12:33.454Z,12.50
2018-08-30T07:15:01.741Z,13.00
2018-08-30T07:17:29.903Z,12.67
2018-08-30T07:19:58.062Z,12.80
2018-08-30T07:22:26.287Z,12.87
2018-08-30T07:24:54.590Z,13.13
2018-08-30T07:27:22.735Z,13.00
2018-08-30T07:29:50.850Z,13.17
2018-08-30T07:32:19.034Z,12.70
2018-08-30T07:34:47.267Z,13.07
2018-08-30T07:37:15.320Z,13.47
2018-08-30T07:39:43.386Z,14.33
2018-08-30T07:42:11.499Z,14.80
2018-08-30T07:44:39.699Z,14.50
2018-08-30T07:47:07.764Z,15.50
2018-08-30T07:49:35.872Z,16.82
2018-08-30T07:52:04.023Z,18.02
2018-08-30T07:54:32.202Z,16.00
2018-08-30T07:57:00.338Z,18.43
2018-08-30T07:59:28.504Z,17.40
2018-08-30T08:01:56.631Z,17.30
2018-08-30T08:04:24.786Z,17.20
2018-08-30T08:06:52.877Z,17.53
2018-08-30T08:09:21.030Z,17.10
2018-08-30T08:11:49.130Z,18.77
2018-08-30T08:14:17.627Z,17.27
2018-08-30T08:16:45.695Z,16.20
2018-08-30T08:19:13.912Z,16.57
2018-08-30T08:21:41.995Z,15.75
2018-08-30T08:24:10.113Z,15.90
2018-08-30T08:26:38.220Z,16.48
2018-08-30T08:29:07.109Z,15.50
2018-08-30T08:31:35.212Z,17.05
2018-08-30T08:34:03.428Z,16.93
2018-08-30T08:36:31.629Z,15.68
2018-08-30T08:38:59.810Z,15.80
2018-08-30T08:41:27.983Z,16.67
2018-08-30T08:43:56.082Z,15.77
2018-08-30T08:46:24.995Z,15.53
2018-08-30T08:48:53.116Z,15.80
2018-08-30T08:51:21.223Z,14.33
2018-08-30T08:53:49.364Z,14.47
2018-08-30T08:56:17.397Z,15.27
2018-08-30T08:58:45.662Z,16.33
2018-08-30T09:01:13.736Z,16.17
2018-08-30T09:03:41.930Z,14.97
2018-08-30T09:06:10.088Z,15.43
2018-08-30T09:08:38.246Z,13.90
2018-08-30T09:11:06.373Z,15.58
2018-08-30T09:13:34.592Z,15.40
2018-08-30T09:16:03.362Z,16.37
2018-08-30T09:18:31.582Z,15.37
2018-08-30T09:20:59.653Z,15.43
2018-08-30T09:23:27.815Z,15.13
2018-08-30T09:25:55.935Z,15.17
2018-08-30T09:28:26.164Z,15.92
2018-08-30T09:30:55.156Z,14.33
2018-08-30T09:33:23.201Z,15.83
2018-08-30T09:35:51.304Z,16.03
2018-08-30T09:38:19.387Z,16.37
2018-08-30T09:40:47.468Z,15.30
2018-08-30T09:43:15.596Z,14.60
2018-08-30T09:45:43.699Z,13.80
2018-08-30T09:48:11.775Z,13.97
2018-08-30T09:50:40.463Z,14.80
2018-08-30T09:53:08.611Z,14.87
2018-08-30T09:55:36.819Z,15.20
2018-08-30T09:58:05.055Z,14.75
2018-08-30T10:00:38.440Z,14.13
2018-08-30T10:03:06.852Z,15.63
2018-08-30T10:05:34.975Z,14.97
2018-08-30T10:08:10.053Z,16.27
2018-08-30T10:10:38.371Z,15.58
2018-08-30T10:13:06.834Z,15.72
2018-08-30T10:15:35.295Z,15.30
2018-08-30T10:18:03.437Z,15.03
2018-08-30T10:20:31.504Z,16.02
2018-08-30T10:22:59.692Z,15.60
2018-08-30T10:25:27.986Z,15.10
2018-08-30T10:27:55.972Z,14.60
2018-08-30T10:30:24.063Z,15.57
2018-08-30T10:32:52.166Z,15.37
2018-08-30T10:35:20.296Z,14.28
2018-08-30T10:37:48.643Z,15.17
2018-08-30T10:40:16.718Z,14.83
2018-08-30T10:42:44.936Z,14.80
2018-08-30T10:45:13.014Z,15.15
2018-08-30T10:47:41.135Z,14.30
2018-08-30T10:50:09.278Z,13.87
2018-08-30T10:52:37.395Z,15.70
2018-08-30T10:55:05.571Z,14.40
2018-08-30T10:57:33.690Z,14.87
2018-08-30T11:00:01.831Z,14.00
2018-08-30T11:02:29.996Z,14.03
2018-08-30T11:04:58.584Z,14.40
2018-08-30T11:07:26.886Z,15.40
2018-08-30T11:09:55.644Z,14.85
2018-08-30T11:12:23.737Z,15.30
2018-08-30T11:14:51.900Z,13.70
2018-08-30T11:17:20.003Z,14.23
2018-08-30T11:19:48.143Z,13.87
2018-08-30T11:22:16.284Z,14.27
2018-08-30T11:24:44.517Z,12.73
2018-08-30T11:27:12.812Z,13.53
2018-08-30T11:29:40.955Z,11.83
2018-08-30T11:32:09.151Z,13.72
2018-08-30T11:34:37.284Z,14.20
2018-08-30T11:37:05.960Z,13.83
2018-08-30T11:39:34.195Z,13.30
2018-08-30T11:42:02.362Z,13.70
2018-08-30T11:44:30.482Z,13.23
2018-08-30T11:46:58.778Z,14.30
2018-08-30T11:49:26.947Z,12.90
2018-08-30T11:51:55.829Z,14.40
2018-08-30T11:54:24.009Z,12.43
2018-08-30T11:56:52.218Z,12.67
2018-08-30T11:59:20.311Z,14.37
2018-08-30T12:01:48.434Z,13.93
2018-08-30T12:04:17.460Z,12.67
2018-08-30T12:06:45.583Z,13.53
2018-08-30T12:09:14.308Z,13.40
2018-08-30T12:11:42.549Z,13.00
2018-08-30T12:14:10.664Z,12.23
2018-08-30T12:16:38.989Z,12.60
2018-08-30T12:19:07.165Z,12.17
2018-08-30T12:21:35.304Z,12.37
2018-08-30T12:24:03.415Z,11.43
2018-08-30T12:26:31.604Z,12.20
2018-08-30T12:28:59.819Z,11.57
2018-08-30T12:31:27.894Z,12.07
2018-08-30T12:33:57.311Z,11.12
2018-08-30T12:36:26.179Z,11.48
2018-08-30T12:38:54.419Z,12.90
2018-08-30T12:41:22.593Z,11.90
2018-08-30T12:43:50.800Z,12.90
2018-08-30T12:46:18.728Z,12.80
2018-08-30T12:48:46.890Z,11.30
2018-08-30T12:51:15.501Z,11.93
2018-08-30T12:53:43.459Z,11.45
2018-08-30T12:56:12.130Z,13.20
2018-08-30T12:58:40.101Z,12.35
2018-08-30T13:01:08.250Z,11.22
2018-08-30T13:03:36.526Z,12.70
2018-08-30T13:06:04.951Z,11.80
2018-08-30T13:08:33.066Z,11.80
2018-08-30T13:11:01.170Z,12.25
2018-08-30T13:13:29.148Z,11.33
2018-08-30T13:15:57.353Z,11.07
2018-08-30T13:18:26.570Z,11.40
2018-08-30T13:20:54.903Z,12.00
2018-08-30T13:23:23.005Z,10.10
2018-08-30T13:25:51.276Z,9.60
2018-08-30T13:28:19.381Z,9.47
2018-08-30T13:30:47.375Z,9.83
2018-08-30T13:33:19.909Z,8.43
2018-08-30T13:35:43.620Z,7.67
2018-08-30T13:38:11.891Z,7.40
2018-08-30T13:40:40.198Z,7.00
2018-08-30T13:43:08.070Z,5.90
2018-08-30T13:45:36.272Z,7.85
2018-08-30T13:48:04.434Z,6.35
2018-08-30T13:50:32.649Z,5.80
2018-08-30T13:53:01.206Z,6.50
2018-08-30T13:55:29.249Z,6.00
2018-08-30T13:57:57.735Z,5.93
2018-08-30T14:00:27.179Z,6.10
2018-08-30T14:02:55.048Z,5.00
2018-08-30T14:05:23.212Z,5.63
2018-08-30T14:07:51.502Z,5.47
2018-08-30T14:10:19.785Z,5.37
2018-08-30T14:12:47.621Z,6.37
2018-08-30T14:15:15.939Z,5.57
2018-08-30T14:17:44.261Z,5.72
2018-08-30T14:20:12.384Z,5.10
2018-08-30T14:22:40.752Z,5.58
2018-08-30T14:25:08.766Z,6.00
2018-08-30T14:27:37.052Z,6.25
2018-08-30T14:30:05.165Z,5.97
2018-08-30T14:32:33.263Z,5.80
2018-08-30T14:35:01.444Z,5.90
2018-08-30T14:37:29.575Z,5.73
2018-08-30T14:39:57.783Z,5.67
2018-08-30T14:42:26.507Z,5.50
2018-08-30T14:44:54.599Z,6.70
2018-08-30T14:47:23.085Z,6.10
2018-08-30T14:49:51.279Z,5.97
2018-08-30T14:52:19.601Z,6.03
2018-08-30T14:54:47.752Z,6.10
2018-08-30T14:57:16.187Z,5.10
2018-08-30T14:59:44.333Z,5.12
2018-08-30T15:02:12.490Z,5.83
2018-08-30T15:04:40.604Z,5.12
2018-08-30T15:07:08.728Z,5.17
2018-08-30T15:09:36.794Z,5.80
2018-08-30T15:12:04.908Z,5.30
2018-08-30T15:14:33.082Z,5.27
2018-08-30T15:17:01.556Z,5.15
2018-08-30T15:19:29.448Z,5.63
2018-08-30T15:21:57.568Z,5.20
2018-08-30T15:29:18.348Z,5.50
2018-08-30T15:31:46.535Z,4.60
2018-08-30T15:34:14.656Z,4.87
2018-08-30T15:36:42.929Z,5.07
2018-08-30T15:39:11.644Z,4.93
2018-08-30T15:41:39.897Z,5.20
2018-08-30T15:44:08.119Z,5.37
2018-08-30T15:46:36.300Z,4.78
2018-08-30T15:49:04.654Z,4.92
2018-08-30T15:51:32.885Z,5.05
2018-08-30T15:54:01.265Z,4.62
2018-08-30T15:56:29.315Z,5.13
2018-08-30T15:58:57.422Z,5.37
2018-08-30T16:01:25.547Z,5.23
2018-08-30T16:03:53.672Z,5.53
2018-08-30T16:06:21.787Z,4.73
2018-08-30T16:08:49.899Z,5.87
2018-08-30T16:11:18.151Z,5.57
2018-08-30T16:13:46.199Z,5.40
2018-08-30T16:16:14.541Z,4.92
2018-08-30T16:18:42.702Z,5.60
2018-08-30T16:21:10.815Z,5.03
2018-08-30T16:23:39.057Z,5.10
2018-08-30T16:26:07.363Z,5.23
2018-08-30T16:28:36.153Z,5.03
2018-08-30T16:31:04.268Z,4.92
2018-08-30T16:33:32.359Z,4.70
2018-08-30T16:36:00.458Z,5.53
2018-08-30T16:38:28.585Z,6.13
2018-08-30T16:40:57.127Z,4.17
2018-08-30T16:43:25.387Z,4.40
2018-08-30T16:45:53.519Z,5.00
2018-08-30T16:48:21.633Z,4.20
2018-08-30T16:50:49.705Z,4.07
2018-08-30T16:53:17.952Z,2.70
2018-08-30T16:55:46.023Z,3.60
2018-08-30T16:58:14.327Z,3.22
2018-08-30T17:00:42.471Z,3.67
2018-08-30T17:03:10.933Z,3.77
2018-08-30T17:05:39.127Z,3.40
2018-08-30T17:08:07.300Z,3.00
2018-08-30T17:10:35.457Z,3.60
2018-08-30T17:13:03.507Z,3.67
2018-08-30T17:15:31.727Z,2.80
2018-08-30T17:17:59.909Z,3.73
2018-08-30T17:20:46.660Z,3.40
2018-08-30T17:23:14.839Z,3.50
2018-08-30T17:25:43.520Z,3.27
2018-08-30T17:28:12.124Z,3.40
2018-08-30T17:31:00.769Z,3.60
2018-08-30T17:33:50.858Z,3.17
2018-08-30T17:36:19.601Z,2.97
2018-08-30T17:38:47.818Z,3.10
2018-08-30T17:41:15.894Z,3.03
2018-08-30T17:43:44.015Z,3.57
2018-08-30T17:46:12.223Z,3.10
2018-08-30T17:48:40.435Z,2.93
2018-08-30T17:51:08.595Z,3.37
2018-08-30T17:53:36.703Z,2.53
2018-08-30T17:56:04.974Z,2.63
2018-08-30T17:58:33.045Z,3.00
2018-08-30T18:01:01.247Z,3.10
2018-08-30T18:03:29.466Z,2.75
2018-08-30T18:05:57.619Z,3.70
2018-08-30T18:08:25.841Z,3.00
2018-08-30T18:10:54.018Z,3.20
2018-08-30T18:13:22.602Z,2.97
2018-08-30T18:15:50.784Z,3.00
2018-08-30T18:18:18.938Z,4.07
2018-08-30T18:20:47.067Z,3.00
2018-08-30T18:23:15.168Z,2.47
2018-08-30T18:25:43.343Z,3.30
2018-08-30T18:28:11.720Z,2.87
2018-08-30T18:30:39.815Z,3.20
2018-08-30T18:33:07.942Z,2.90
2018-08-30T18:35:36.037Z,2.90
2018-08-30T18:38:04.168Z,3.67
2018-08-30T18:40:32.399Z,2.47
2018-08-30T18:43:00.471Z,2.60
2018-08-30T18:45:28.649Z,2.92
2018-08-30T18:47:57.641Z,2.77
2018-08-30T18:50:26.037Z,2.65
2018-08-30T18:52:54.116Z,2.30
2018-08-30T18:55:22.403Z,2.47
2018-08-30T18:57:50.623Z,2.30
2018-08-30T19:00:18.804Z,2.80
2018-08-30T19:02:49.164Z,2.67
2018-08-30T19:05:17.275Z,2.30
2018-08-30T19:07:45.379Z,2.90
2018-08-30T19:10:14.877Z,2.35
2018-08-30T19:12:44.161Z,2.80
2018-08-30T19:15:17.560Z,2.05
2018-08-30T19:17:51.148Z,2.50
2018-08-30T19:20:19.257Z,2.57
2018-08-30T19:22:47.352Z,2.10
2018-08-30T19:25:19.708Z,2.55
2018-08-30T19:27:47.939Z,2.43
2018-08-30T19:30:21.350Z,2.30
2018-08-30T19:32:49.528Z,2.70
2018-08-30T19:35:23.008Z,2.47
2018-08-30T19:37:51.383Z,1.97
2018-08-30T19:40:25.012Z,2.40
2018-08-30T19:42:53.174Z,2.20
2018-08-30T19:45:21.393Z,2.30
2018-08-30T19:47:49.509Z,1.90
2018-08-30T19:50:17.611Z,2.33
2018-08-30T19:52:46.926Z,2.10
2018-08-30T19:55:15.083Z,2.63
2018-08-30T19:57:43.364Z,2.63
2018-08-30T20:00:11.589Z,2.63
2018-08-30T20:02:40.013Z,2.30
2018-08-30T20:05:08.873Z,2.05
2018-08-30T20:07:37.472Z,2.27
2018-08-30T20:10:06.338Z,2.40
2018-08-30T20:12:34.552Z,2.33
2018-08-30T20:15:05.289Z,4.93
2018-08-30T20:17:33.514Z,2.43
2018-08-30T20:20:01.649Z,2.40
2018-08-30T20:22:30.058Z,2.50
2018-08-30T20:24:58.754Z,2.63
2018-08-30T20:27:27.123Z,2.53
2018-08-30T20:29:55.828Z,2.17
2018-08-30T20:32:24.184Z,2.63
2018-08-30T20:34:52.369Z,2.80
2018-08-30T20:37:20.605Z,2.17
2018-08-30T20:39:48.888Z,2.43
2018-08-30T20:42:17.185Z,3.00
2018-08-30T20:44:45.484Z,2.23
2018-08-30T20:47:13.670Z,2.60
2018-08-30T20:49:41.872Z,2.93
2018-08-30T20:52:10.147Z,2.42
2018-08-30T20:54:38.365Z,6.90
2018-08-30T20:57:06.646Z,2.23
2018-08-30T20:59:34.720Z,2.30
2018-08-30T21:02:02.933Z,2.35
2018-08-30T21:04:30.964Z,1.90
2018-08-30T21:07:01.312Z,2.37
2018-08-30T21:09:29.512Z,2.30
2018-08-30T21:11:58.480Z,2.60
2018-08-30T21:14:26.596Z,2.20
2018-08-30T21:16:56.781Z,2.47
2018-08-30T21:19:25.134Z,3.60
2018-08-30T21:21:53.686Z,2.80
2018-08-30T21:24:22.003Z,2.57
2018-08-30T21:26:50.229Z,2.60
2018-08-30T21:29:18.468Z,2.07
2018-08-30T21:31:46.706Z,2.27
2018-08-30T21:34:15.878Z,2.33
2018-08-30T21:36:44.035Z,2.80
2018-08-30T21:39:12.247Z,2.80
2018-08-30T21:41:40.380Z,2.23
2018-08-30T21:44:08.517Z,2.17
2018-08-30T21:46:36.684Z,1.90
2018-08-30T21:49:04.790Z,2.35
2018-08-30T21:51:32.874Z,2.17
2018-08-30T21:54:01.118Z,4.47
2018-08-30T21:56:29.235Z,2.03
2018-08-30T21:58:58.676Z,2.83
2018-08-30T22:01:26.842Z,2.60
2018-08-30T22:03:55.116Z,2.47
2018-08-30T22:06:23.231Z,2.33
2018-08-30T22:08:51.496Z,2.70
2018-08-30T22:11:19.984Z,2.23
2018-08-30T22:13:48.101Z,2.37
2018-08-30T22:16:16.205Z,2.40
2018-08-30T22:18:44.658Z,2.23
2018-08-30T22:21:12.951Z,2.70
2018-08-30T22:23:41.140Z,2.58
2018-08-30T22:26:09.501Z,2.30
2018-08-30T22:28:37.624Z,2.60
2018-08-30T22:31:05.927Z,2.63
2018-08-30T22:33:34.056Z,2.27
2018-08-30T22:36:02.128Z,2.97
2018-08-30T22:38:30.255Z,2.50
2018-08-30T22:40:58.819Z,2.37
2018-08-30T22:43:26.937Z,2.00
2018-08-30T22:45:55.040Z,2.10
2018-08-30T22:48:23.122Z,2.40
2018-08-30T22:50:51.239Z,2.60
2018-08-30T22:53:19.420Z,3.10
2018-08-30T22:55:47.547Z,1.97
2018-08-30T22:58:15.668Z,2.50
2018-08-30T23:00:44.020Z,2.83
2018-08-30T23:03:12.152Z,2.22
2018-08-30T23:05:42.482Z,2.30
2018-08-30T23:08:10.580Z,2.50
2018-08-30T23:10:38.699Z,2.30
2018-08-30T23:13:07.156Z,2.60
2018-08-30T23:15:35.270Z,2.20
2018-08-30T23:18:03.407Z,2.13
2018-08-30T23:20:31.540Z,2.20
2018-08-30T23:22:59.712Z,3.03
2018-08-30T23:25:28.858Z,1.90
2018-08-30T23:27:57.010Z,2.33
2018-08-30T23:30:25.146Z,2.70
2018-08-30T23:32:53.243Z,2.50
2018-08-30T23:35:21.372Z,2.57
2018-08-30T23:37:49.481Z,2.50
2018-08-30T23:40:17.567Z,2.27
2018-08-30T23:42:45.764Z,2.53
2018-08-30T23:45:13.932Z,2.00
2018-08-30T23:47:42.069Z,2.50
2018-08-30T23:50:10.212Z,2.20
2018-08-30T23:52:38.432Z,2.43
2018-08-30T23:55:06.696Z,2.30
2018-08-30T23:57:34.842Z,2.45
